createdAt,value
2022-11-03T00:00:08.708Z,21.6
2022-11-03T00:01:04.386Z,21.5
2022-11-03T00:02:04.499Z,21.6
2022-11-03T00:03:04.718Z,21.5
2022-11-03T00:04:04.381Z,21.5
2022-11-03T00:05:04.433Z,21.5
2022-11-03T00:06:04.417Z,21.5
2022-11-03T00:07:04.396Z,21.5
2022-11-03T00:08:04.427Z,21.5
2022-11-03T00:09:04.378Z,21.5
2022-11-03T00:10:04.382Z,21.5
2022-11-03T00:11:04.382Z,21.5
2022-11-03T00:12:04.422Z,21.5
2022-11-03T00:13:04.834Z,21.5
2022-11-03T00:14:04.471Z,21.5
2022-11-03T00:15:04.379Z,21.5
2022-11-03T00:16:04.386Z,21.5
2022-11-03T00:17:04.383Z,21.5
2022-11-03T00:18:04.427Z,21.5
2022-11-03T00:19:04.388Z,21.5
2022-11-03T00:20:04.401Z,21.4
2022-11-03T00:21:04.393Z,21.4
2022-11-03T00:22:04.386Z,21.4
2022-11-03T00:23:04.692Z,21.4
2022-11-03T00:24:04.418Z,21.4
2022-11-03T00:25:04.399Z,21.4
2022-11-03T00:26:04.391Z,21.4
2022-11-03T00:27:04.398Z,21.4
2022-11-03T00:28:04.391Z,21.4
2022-11-03T00:29:04.374Z,21.4
2022-11-03T00:30:04.487Z,21.4
2022-11-03T00:31:04.383Z,21.4
2022-11-03T00:32:04.390Z,21.4
2022-11-03T00:33:04.844Z,21.4
2022-11-03T00:34:04.391Z,21.4
2022-11-03T00:35:04.400Z,21.4
2022-11-03T00:36:04.420Z,21.3
2022-11-03T00:37:04.398Z,21.3
2022-11-03T00:38:04.388Z,21.3
2022-11-03T00:39:04.391Z,21.3
2022-11-03T00:40:04.397Z,21.3
2022-11-03T00:41:04.388Z,21.3
2022-11-03T00:42:04.447Z,21.3
2022-11-03T00:43:04.544Z,21.3
2022-11-03T00:44:04.403Z,21.3
2022-11-03T00:45:04.386Z,21.3
2022-11-03T00:46:04.433Z,21.3
2022-11-03T00:47:04.439Z,21.3
2022-11-03T00:48:04.424Z,21.2
2022-11-03T00:49:04.646Z,21.2
2022-11-03T00:50:04.404Z,21.2
2022-11-03T00:51:04.484Z,21.2
2022-11-03T00:52:04.492Z,21.2
2022-11-03T00:53:04.744Z,21.2
2022-11-03T00:54:04.451Z,21.2
2022-11-03T00:55:04.398Z,21.2
2022-11-03T00:56:04.400Z,21.1
2022-11-03T00:57:04.412Z,21.1
2022-11-03T00:58:04.400Z,21.1
2022-11-03T00:59:04.398Z,21.1
2022-11-03T01:00:04.485Z,21.1
2022-11-03T01:01:04.433Z,21.1
2022-11-03T01:02:04.492Z,21.0
2022-11-03T01:03:04.622Z,21.0
2022-11-03T01:04:04.406Z,21.0
2022-11-03T01:05:04.392Z,21.0
2022-11-03T01:06:04.445Z,21.0
2022-11-03T01:07:04.411Z,21.0
2022-11-03T01:08:04.404Z,21.0
2022-11-03T01:09:04.411Z,21.0
2022-11-03T01:10:05.023Z,20.9
2022-11-03T01:11:04.411Z,20.9
2022-11-03T01:12:04.435Z,20.9
2022-11-03T01:13:04.499Z,20.9
2022-11-03T01:14:04.412Z,20.9
2022-11-03T01:15:04.404Z,20.9
2022-11-03T01:16:04.429Z,20.9
2022-11-03T01:17:04.400Z,20.9
2022-11-03T01:18:04.451Z,20.9
2022-11-03T01:19:04.397Z,20.9
2022-11-03T01:20:04.410Z,20.9
2022-11-03T01:21:04.416Z,20.9
2022-11-03T01:22:07.780Z,20.9
2022-11-03T01:23:04.745Z,20.8
2022-11-03T01:24:04.437Z,20.8
2022-11-03T01:25:04.407Z,20.8
2022-11-03T01:26:04.410Z,20.8
2022-11-03T01:27:04.414Z,20.8
2022-11-03T01:29:04.415Z,20.8
2022-11-03T01:30:04.437Z,20.8
2022-11-03T01:31:04.404Z,20.8
2022-11-03T01:32:04.480Z,20.8
2022-11-03T01:33:04.675Z,20.8
2022-11-03T01:34:04.403Z,20.8
2022-11-03T01:35:04.409Z,20.8
2022-11-03T01:36:04.477Z,20.8
2022-11-03T01:37:04.418Z,20.8
2022-11-03T01:38:04.415Z,20.8
2022-11-03T01:39:05.408Z,20.8
2022-11-03T01:40:04.449Z,20.8
2022-11-03T01:41:04.414Z,20.8
2022-11-03T01:42:04.453Z,20.8
2022-11-03T01:43:04.637Z,20.8
2022-11-03T01:44:04.419Z,20.8
2022-11-03T01:45:04.403Z,20.8
2022-11-03T01:46:04.411Z,20.7
2022-11-03T01:47:04.416Z,20.7
2022-11-03T01:48:39.944Z,20.7
2022-11-03T01:49:04.409Z,20.7
2022-11-03T01:50:04.415Z,20.7
2022-11-03T01:51:04.430Z,20.7
2022-11-03T01:52:04.410Z,20.7
2022-11-03T01:53:04.645Z,20.7
2022-11-03T01:54:04.440Z,20.7
2022-11-03T01:55:04.417Z,20.7
2022-11-03T01:56:04.421Z,20.7
2022-11-03T01:57:04.416Z,20.7
2022-11-03T01:58:04.408Z,20.7
2022-11-03T01:59:04.416Z,20.7
2022-11-03T02:00:04.457Z,20.7
2022-11-03T02:01:04.479Z,20.7
2022-11-03T02:02:04.640Z,20.7
2022-11-03T02:03:04.643Z,20.7
2022-11-03T02:04:04.461Z,20.7
2022-11-03T02:05:04.424Z,20.7
2022-11-03T02:06:04.415Z,20.7
2022-11-03T02:07:04.422Z,20.7
2022-11-03T02:08:04.464Z,20.7
2022-11-03T02:09:04.412Z,20.7
2022-11-03T02:10:04.445Z,20.6
2022-11-03T02:11:04.410Z,20.6
2022-11-03T02:12:04.412Z,20.7
2022-11-03T02:13:04.572Z,20.6
2022-11-03T02:14:04.417Z,20.6
2022-11-03T02:15:04.453Z,20.6
2022-11-03T02:16:04.454Z,20.6
2022-11-03T02:17:04.427Z,20.6
2022-11-03T02:18:04.422Z,20.6
2022-11-03T02:19:04.424Z,20.6
2022-11-03T02:20:04.427Z,20.6
2022-11-03T02:21:04.415Z,20.6
2022-11-03T02:22:04.460Z,20.6
2022-11-03T02:23:04.824Z,20.6
2022-11-03T02:24:04.425Z,20.6
2022-11-03T02:25:04.420Z,20.6
2022-11-03T02:26:04.574Z,20.6
2022-11-03T02:27:04.418Z,20.6
2022-11-03T02:28:04.452Z,20.6
2022-11-03T02:29:04.419Z,20.6
2022-11-03T02:30:04.420Z,20.6
2022-11-03T02:31:04.429Z,20.6
2022-11-03T02:32:04.458Z,20.6
2022-11-03T02:33:04.615Z,20.6
2022-11-03T02:34:04.458Z,20.6
2022-11-03T02:35:04.418Z,20.6
2022-11-03T02:36:04.438Z,20.6
2022-11-03T02:37:04.420Z,20.6
2022-11-03T02:38:04.426Z,20.6
2022-11-03T02:39:04.426Z,20.5
2022-11-03T02:40:04.456Z,20.6
2022-11-03T02:41:04.428Z,20.5
2022-11-03T02:42:04.432Z,20.5
2022-11-03T02:43:04.701Z,20.5
2022-11-03T02:44:04.430Z,20.5
2022-11-03T02:45:04.428Z,20.5
2022-11-03T02:46:04.526Z,20.5
2022-11-03T02:47:04.435Z,20.5
2022-11-03T02:48:04.433Z,20.5
2022-11-03T02:49:04.419Z,20.5
2022-11-03T02:50:04.484Z,20.5
2022-11-03T02:51:04.827Z,20.5
2022-11-03T02:52:04.533Z,20.5
2022-11-03T02:53:05.791Z,20.5
2022-11-03T02:55:36.806Z,20.2
2022-11-03T02:56:04.747Z,20.4
2022-11-03T02:57:04.560Z,20.4
2022-11-03T02:58:04.615Z,20.4
2022-11-03T02:59:04.520Z,20.4
2022-11-03T03:00:04.527Z,20.5
2022-11-03T03:01:04.588Z,20.4
2022-11-03T03:02:04.806Z,20.4
2022-11-03T03:03:04.865Z,20.4
2022-11-03T03:04:04.518Z,20.4
2022-11-03T03:05:04.843Z,20.4
2022-11-03T03:06:04.727Z,20.4
2022-11-03T03:07:04.529Z,20.4
2022-11-03T03:08:04.525Z,20.4
2022-11-03T03:09:04.908Z,20.4
2022-11-03T03:10:04.555Z,20.4
2022-11-03T03:11:04.532Z,20.4
2022-11-03T03:12:04.539Z,20.4
2022-11-03T03:13:04.843Z,20.4
2022-11-03T03:14:04.523Z,20.4
2022-11-03T03:15:04.558Z,20.4
2022-11-03T03:16:04.518Z,20.4
2022-11-03T03:17:05.571Z,20.4
2022-11-03T03:18:04.535Z,20.4
2022-11-03T03:19:04.676Z,20.4
2022-11-03T03:20:04.525Z,20.4
2022-11-03T03:21:04.631Z,20.4
2022-11-03T03:22:04.753Z,20.4
2022-11-03T03:23:08.944Z,20.4
2022-11-03T03:24:04.547Z,20.4
2022-11-03T03:25:04.540Z,20.4
2022-11-03T03:26:04.525Z,20.4
2022-11-03T03:27:04.531Z,20.4
2022-11-03T03:28:04.514Z,20.4
2022-11-03T03:29:04.525Z,20.4
2022-11-03T03:30:04.561Z,20.3
2022-11-03T03:31:04.537Z,20.4
2022-11-03T03:32:04.530Z,20.3
2022-11-03T03:33:05.124Z,20.3
2022-11-03T03:34:16.282Z,20.3
2022-11-03T03:35:04.527Z,20.3
2022-11-03T03:36:04.552Z,20.3
2022-11-03T03:37:04.538Z,20.3
2022-11-03T03:38:04.853Z,20.3
2022-11-03T03:39:04.543Z,20.3
2022-11-03T03:40:04.526Z,20.3
2022-11-03T03:41:10.410Z,20.3
2022-11-03T03:42:04.556Z,20.3
2022-11-03T03:43:04.544Z,20.3
2022-11-03T03:44:04.530Z,20.3
2022-11-03T03:45:04.532Z,20.3
2022-11-03T03:46:04.531Z,20.3
2022-11-03T03:47:04.548Z,20.3
2022-11-03T03:48:04.625Z,20.3
2022-11-03T03:49:04.546Z,20.3
2022-11-03T03:50:04.547Z,20.3
2022-11-03T03:51:04.539Z,20.3
2022-11-03T03:52:04.536Z,20.3
2022-11-03T03:53:04.530Z,20.3
2022-11-03T03:54:04.589Z,20.3
2022-11-03T03:55:04.548Z,20.3
2022-11-03T03:56:04.539Z,20.3
2022-11-03T03:57:04.605Z,20.3
2022-11-03T03:58:04.844Z,20.2
2022-11-03T03:59:04.549Z,20.2
2022-11-03T04:00:04.602Z,20.2
2022-11-03T04:01:04.573Z,20.2
2022-11-03T04:02:04.691Z,20.2
2022-11-03T04:03:04.538Z,20.2
2022-11-03T04:04:04.541Z,20.2
2022-11-03T04:05:04.540Z,20.2
2022-11-03T04:06:04.571Z,20.2
2022-11-03T04:07:04.537Z,20.2
2022-11-03T04:08:04.796Z,20.2
2022-11-03T04:09:04.535Z,20.2
2022-11-03T04:10:04.539Z,20.2
2022-11-03T04:11:04.541Z,20.2
2022-11-03T04:12:04.567Z,20.2
2022-11-03T04:13:04.545Z,20.2
2022-11-03T04:14:04.557Z,20.2
2022-11-03T04:15:04.559Z,20.2
2022-11-03T04:16:04.543Z,20.2
2022-11-03T04:17:04.542Z,20.2
2022-11-03T04:18:04.986Z,20.2
2022-11-03T04:19:04.537Z,20.2
2022-11-03T04:20:04.565Z,20.2
2022-11-03T04:21:04.534Z,20.2
2022-11-03T04:22:04.544Z,20.2
2022-11-03T04:23:04.545Z,20.2
2022-11-03T04:24:04.573Z,20.2
2022-11-03T04:25:04.547Z,20.2
2022-11-03T04:26:04.537Z,20.2
2022-11-03T04:27:04.554Z,20.2
2022-11-03T04:28:04.825Z,20.2
2022-11-03T04:29:04.545Z,20.2
2022-11-03T04:30:04.570Z,20.2
2022-11-03T04:31:04.545Z,20.2
2022-11-03T04:32:04.554Z,20.2
2022-11-03T04:33:04.552Z,20.2
2022-11-03T04:34:04.546Z,20.2
2022-11-03T04:35:04.542Z,20.2
2022-11-03T04:36:04.583Z,20.1
2022-11-03T04:37:04.547Z,20.1
2022-11-03T04:38:04.757Z,20.1
2022-11-03T04:39:04.573Z,20.1
2022-11-03T04:40:04.558Z,20.1
2022-11-03T04:41:04.541Z,20.1
2022-11-03T04:42:04.573Z,20.1
2022-11-03T04:43:04.723Z,20.1
2022-11-03T04:44:04.554Z,20.1
2022-11-03T04:45:04.570Z,20.1
2022-11-03T04:46:04.553Z,20.1
2022-11-03T04:47:04.538Z,20.1
2022-11-03T04:48:04.584Z,20.1
2022-11-03T04:49:04.553Z,20.1
2022-11-03T04:50:04.558Z,20.1
2022-11-03T04:51:04.565Z,20.1
2022-11-03T04:52:04.553Z,20.1
2022-11-03T04:53:04.780Z,20.1
2022-11-03T04:54:04.618Z,20.1
2022-11-03T04:55:04.543Z,20.1
2022-11-03T04:56:07.385Z,20.1
2022-11-03T04:57:04.544Z,20.0
2022-11-03T04:58:04.552Z,20.0
2022-11-03T04:59:04.550Z,20.0
2022-11-03T05:00:04.622Z,20.0
2022-11-03T05:01:04.603Z,20.0
2022-11-03T05:02:04.676Z,20.0
2022-11-03T05:03:04.544Z,20.0
2022-11-03T05:04:04.554Z,20.1
2022-11-03T05:05:04.589Z,20.1
2022-11-03T05:06:04.618Z,20.1
2022-11-03T05:07:04.558Z,20.2
2022-11-03T05:08:04.570Z,20.2
2022-11-03T05:09:04.549Z,20.3
2022-11-03T05:10:04.593Z,20.3
2022-11-03T05:11:04.562Z,20.3
2022-11-03T05:12:04.586Z,20.4
2022-11-03T05:13:04.966Z,20.4
2022-11-03T05:14:04.560Z,20.4
2022-11-03T05:15:04.556Z,20.5
2022-11-03T05:16:04.564Z,20.5
2022-11-03T05:17:04.570Z,20.5
2022-11-03T05:18:04.583Z,20.5
2022-11-03T05:19:04.550Z,20.6
2022-11-03T05:20:04.557Z,20.6
2022-11-03T05:21:04.567Z,20.6
2022-11-03T05:22:04.573Z,20.6
2022-11-03T05:23:04.890Z,20.7
2022-11-03T05:24:04.651Z,20.7
2022-11-03T05:25:04.577Z,20.7
2022-11-03T05:26:04.563Z,20.7
2022-11-03T05:27:04.556Z,20.7
2022-11-03T05:28:04.970Z,20.7
2022-11-03T05:29:04.550Z,20.7
2022-11-03T05:30:04.605Z,20.7
2022-11-03T05:31:04.564Z,20.7
2022-11-03T05:32:04.575Z,20.7
2022-11-03T05:33:04.629Z,20.7
2022-11-03T05:34:11.245Z,20.6
2022-11-03T05:35:03.975Z,20.7
2022-11-03T05:36:04.685Z,20.6
2022-11-03T05:37:03.980Z,20.6
2022-11-03T05:38:04.184Z,20.6
2022-11-03T05:39:03.974Z,20.6
2022-11-03T05:40:03.975Z,20.5
2022-11-03T05:41:03.977Z,20.5
2022-11-03T05:42:04.062Z,20.5
2022-11-03T05:43:06.285Z,20.5
2022-11-03T05:44:05.026Z,20.5
2022-11-03T05:45:04.079Z,20.5
2022-11-03T05:46:04.167Z,20.5
2022-11-03T05:47:07.383Z,20.4
2022-11-03T05:48:04.301Z,20.4
2022-11-03T05:49:03.989Z,20.4
2022-11-03T05:50:03.976Z,20.4
2022-11-03T05:51:03.983Z,20.4
2022-11-03T05:52:03.968Z,20.4
2022-11-03T05:53:03.971Z,20.4
2022-11-03T05:54:04.003Z,20.4
2022-11-03T05:55:03.971Z,20.4
2022-11-03T05:56:03.981Z,20.5
2022-11-03T05:57:03.984Z,20.6
2022-11-03T05:58:04.270Z,20.7
2022-11-03T05:59:03.970Z,20.8
2022-11-03T06:00:04.005Z,20.8
2022-11-03T06:01:03.976Z,20.8
2022-11-03T06:02:04.091Z,20.9
2022-11-03T06:03:03.974Z,20.9
2022-11-03T06:04:03.969Z,21.0
2022-11-03T06:05:03.979Z,21.0
2022-11-03T06:06:04.930Z,21.1
2022-11-03T06:07:03.995Z,21.1
2022-11-03T06:08:04.212Z,21.1
2022-11-03T06:09:03.976Z,21.1
2022-11-03T06:10:03.978Z,21.2
2022-11-03T06:11:04.056Z,21.2
2022-11-03T06:12:03.991Z,21.2
2022-11-03T06:13:04.425Z,21.2
2022-11-03T06:14:04.617Z,21.2
2022-11-03T06:15:04.047Z,21.3
2022-11-03T06:16:03.984Z,21.3
2022-11-03T06:17:03.980Z,21.3
2022-11-03T06:18:03.995Z,21.3
2022-11-03T06:19:03.984Z,21.2
2022-11-03T06:20:04.590Z,21.2
2022-11-03T06:21:03.984Z,21.2
2022-11-03T06:22:03.987Z,21.1
2022-11-03T06:23:04.248Z,21.1
2022-11-03T06:24:03.970Z,21.1
2022-11-03T06:25:03.977Z,21.0
2022-11-03T06:26:04.068Z,21.0
2022-11-03T06:27:03.985Z,21.0
2022-11-03T06:28:03.992Z,21.0
2022-11-03T06:29:03.997Z,21.0
2022-11-03T06:30:03.977Z,21.0
2022-11-03T06:31:03.984Z,20.9
2022-11-03T06:32:04.021Z,20.9
2022-11-03T06:33:04.170Z,20.9
2022-11-03T06:34:04.008Z,20.9
2022-11-03T06:35:03.986Z,20.9
2022-11-03T06:36:03.979Z,20.9
2022-11-03T06:37:03.985Z,20.9
2022-11-03T06:38:04.012Z,20.9
2022-11-03T06:39:04.103Z,20.9
2022-11-03T06:40:03.975Z,20.9
2022-11-03T06:41:03.980Z,20.9
2022-11-03T06:42:03.985Z,20.9
2022-11-03T06:43:04.296Z,20.9
2022-11-03T06:44:04.125Z,20.9
2022-11-03T06:45:04.161Z,20.9
2022-11-03T06:46:04.093Z,20.9
2022-11-03T06:47:04.087Z,20.9
2022-11-03T06:48:03.991Z,20.9
2022-11-03T06:49:03.998Z,20.8
2022-11-03T06:50:04.013Z,20.8
2022-11-03T06:51:03.985Z,20.8
2022-11-03T06:52:03.992Z,20.8
2022-11-03T06:53:04.365Z,20.8
2022-11-03T06:54:04.031Z,20.8
2022-11-03T06:55:04.011Z,20.8
2022-11-03T06:56:03.982Z,20.8
2022-11-03T06:57:04.031Z,20.9
2022-11-03T06:58:03.994Z,20.9
2022-11-03T06:59:03.996Z,20.9
2022-11-03T07:00:32.581Z,20.9
2022-11-03T07:01:04.200Z,20.8
2022-11-03T07:02:04.064Z,20.8
2022-11-03T07:03:04.234Z,20.8
2022-11-03T07:04:04.006Z,20.8
2022-11-03T07:05:03.996Z,20.8
2022-11-03T07:06:04.013Z,20.8
2022-11-03T07:07:03.988Z,20.8
2022-11-03T07:08:03.991Z,20.8
2022-11-03T07:09:04.001Z,20.8
2022-11-03T07:10:03.996Z,20.8
2022-11-03T07:11:04.006Z,20.8
2022-11-03T07:12:04.024Z,20.8
2022-11-03T07:13:07.101Z,20.8
2022-11-03T07:14:03.991Z,20.8
2022-11-03T07:16:04.007Z,20.8
2022-11-03T07:17:04.002Z,20.8
2022-11-03T07:18:04.202Z,20.8
2022-11-03T07:19:04.013Z,20.8
2022-11-03T07:20:04.002Z,20.8
2022-11-03T07:21:04.003Z,20.8
2022-11-03T07:22:03.997Z,20.8
2022-11-03T07:23:03.998Z,20.8
2022-11-03T07:24:04.032Z,20.8
2022-11-03T07:25:03.998Z,20.8
2022-11-03T07:26:04.012Z,20.8
2022-11-03T07:27:03.989Z,20.8
2022-11-03T07:28:04.274Z,20.8
2022-11-03T07:29:03.995Z,20.8
2022-11-03T07:30:04.073Z,20.8
2022-11-03T07:31:04.008Z,20.8
2022-11-03T07:32:04.055Z,20.8
2022-11-03T07:33:03.991Z,20.8
2022-11-03T07:34:03.997Z,20.8
2022-11-03T07:35:04.007Z,20.8
2022-11-03T07:36:15.982Z,20.8
2022-11-03T07:37:04.079Z,20.8
2022-11-03T07:38:04.330Z,20.8
2022-11-03T07:39:05.082Z,20.8
2022-11-03T07:40:04.005Z,20.8
2022-11-03T07:41:04.006Z,20.8
2022-11-03T07:42:04.026Z,20.8
2022-11-03T07:43:04.005Z,20.8
2022-11-03T07:44:04.002Z,20.8
2022-11-03T07:45:04.967Z,20.8
2022-11-03T07:46:04.016Z,20.8
2022-11-03T07:47:04.002Z,20.8
2022-11-03T07:48:04.638Z,20.8
2022-11-03T07:49:04.009Z,20.8
2022-11-03T07:50:04.000Z,20.8
2022-11-03T07:51:04.005Z,20.8
2022-11-03T07:52:04.015Z,20.8
2022-11-03T07:53:03.993Z,20.8
2022-11-03T07:54:04.049Z,20.8
2022-11-03T07:55:04.036Z,20.8
2022-11-03T07:56:04.076Z,20.8
2022-11-03T07:57:04.015Z,20.8
2022-11-03T07:58:04.349Z,20.8
2022-11-03T07:59:04.016Z,20.8
2022-11-03T08:00:07.221Z,20.8
2022-11-03T08:01:04.008Z,20.8
2022-11-03T08:02:04.178Z,20.8
2022-11-03T08:03:04.121Z,20.8
2022-11-03T08:04:04.012Z,20.8
2022-11-03T08:05:04.126Z,20.8
2022-11-03T08:06:06.136Z,20.8
2022-11-03T08:07:04.026Z,20.7
2022-11-03T08:08:04.232Z,20.8
2022-11-03T08:09:05.068Z,20.8
2022-11-03T08:10:04.018Z,20.8
2022-11-03T08:11:04.066Z,20.8
2022-11-03T08:12:04.051Z,20.8
2022-11-03T08:13:04.268Z,20.7
2022-11-03T08:14:04.026Z,20.7
2022-11-03T08:15:04.031Z,20.8
2022-11-03T08:16:04.072Z,20.8
2022-11-03T08:17:04.017Z,20.7
2022-11-03T08:18:04.103Z,20.7
2022-11-03T08:19:04.012Z,20.7
2022-11-03T08:20:04.017Z,20.7
2022-11-03T08:21:04.007Z,20.7
2022-11-03T08:22:04.015Z,20.8
2022-11-03T08:23:24.503Z,20.8
2022-11-03T08:24:04.042Z,20.7
2022-11-03T08:25:04.006Z,20.7
2022-11-03T08:26:04.031Z,20.7
2022-11-03T08:27:04.013Z,20.7
2022-11-03T08:28:04.025Z,20.7
2022-11-03T08:31:01.861Z,20.4
2022-11-03T08:31:12.003Z,20.4
2022-11-03T08:32:04.028Z,20.6
2022-11-03T08:33:04.182Z,20.7
2022-11-03T08:34:04.027Z,20.7
2022-11-03T08:35:04.008Z,20.7
2022-11-03T08:36:04.044Z,20.7
2022-11-03T08:37:04.032Z,20.7
2022-11-03T08:38:04.246Z,20.7
2022-11-03T08:39:04.034Z,20.7
2022-11-03T08:40:04.059Z,20.7
2022-11-03T08:41:04.037Z,20.7
2022-11-03T08:42:04.051Z,20.7
2022-11-03T08:43:04.021Z,20.7
2022-11-03T08:44:04.023Z,20.7
2022-11-03T08:45:04.044Z,20.7
2022-11-03T08:46:15.407Z,20.7
2022-11-03T08:47:04.018Z,20.7
2022-11-03T08:48:04.345Z,20.7
2022-11-03T08:49:04.023Z,20.7
2022-11-03T08:50:04.067Z,20.7
2022-11-03T08:51:04.026Z,20.7
2022-11-03T08:52:04.038Z,20.7
2022-11-03T08:53:04.023Z,20.7
2022-11-03T08:54:04.068Z,20.7
2022-11-03T08:55:04.036Z,20.7
2022-11-03T08:56:04.024Z,20.7
2022-11-03T08:57:04.023Z,20.7
2022-11-03T08:58:05.403Z,20.7
2022-11-03T08:59:04.028Z,20.7
2022-11-03T09:00:04.118Z,20.7
2022-11-03T09:01:04.039Z,20.7
2022-11-03T09:02:04.075Z,20.7
2022-11-03T09:03:04.022Z,20.7
2022-11-03T09:04:04.089Z,20.7
2022-11-03T09:05:04.132Z,20.7
2022-11-03T09:06:04.226Z,20.7
2022-11-03T09:07:04.257Z,20.7
2022-11-03T09:11:12.800Z,20.4
2022-11-03T09:12:04.973Z,20.6
2022-11-03T09:13:04.137Z,20.7
2022-11-03T09:14:03.932Z,20.7
2022-11-03T09:15:03.933Z,20.7
2022-11-03T09:16:10.650Z,20.7
2022-11-03T09:17:11.733Z,20.7
2022-11-03T09:18:04.051Z,20.7
2022-11-03T09:19:03.810Z,20.7
2022-11-03T09:20:04.754Z,20.7
2022-11-03T09:21:03.807Z,20.7
2022-11-03T09:22:03.820Z,20.7
2022-11-03T09:23:03.847Z,20.7
2022-11-03T09:24:03.815Z,20.7
2022-11-03T09:25:03.883Z,20.7
2022-11-03T09:26:03.811Z,20.7
2022-11-03T09:27:03.816Z,20.7
2022-11-03T09:28:03.931Z,20.7
2022-11-03T09:29:03.868Z,20.7
2022-11-03T09:30:13.811Z,20.7
2022-11-03T09:31:03.809Z,20.7
2022-11-03T09:32:03.841Z,20.7
2022-11-03T09:33:03.832Z,20.7
2022-11-03T09:34:03.817Z,20.7
2022-11-03T09:35:03.889Z,20.7
2022-11-03T09:36:03.830Z,20.7
2022-11-03T09:37:03.810Z,20.7
2022-11-03T09:38:03.919Z,20.7
2022-11-03T09:39:03.821Z,20.7
2022-11-03T09:40:03.814Z,20.7
2022-11-03T09:41:09.654Z,20.7
2022-11-03T09:42:10.570Z,20.6
2022-11-03T09:43:04.449Z,20.7
2022-11-03T09:44:04.240Z,20.7
2022-11-03T09:45:04.243Z,20.7
2022-11-03T09:46:04.249Z,20.7
2022-11-03T09:47:04.278Z,20.7
2022-11-03T09:48:04.606Z,20.7
2022-11-03T09:49:04.251Z,20.7
2022-11-03T09:50:04.267Z,20.7
2022-11-03T09:51:04.239Z,20.7
2022-11-03T09:52:04.246Z,20.7
2022-11-03T09:53:04.487Z,20.7
2022-11-03T09:54:04.252Z,20.7
2022-11-03T09:55:04.249Z,20.7
2022-11-03T09:56:04.241Z,20.7
2022-11-03T09:57:04.250Z,20.7
2022-11-03T09:58:04.518Z,20.7
2022-11-03T09:59:04.275Z,20.7
2022-11-03T10:00:04.249Z,20.7
2022-11-03T10:01:04.323Z,20.7
2022-11-03T10:02:04.397Z,20.7
2022-11-03T10:03:05.638Z,20.7
2022-11-03T10:04:04.253Z,20.7
2022-11-03T10:05:09.744Z,20.7
2022-11-03T10:06:04.253Z,20.7
2022-11-03T10:07:04.244Z,20.7
2022-11-03T10:08:04.254Z,20.7
2022-11-03T10:09:04.286Z,20.7
2022-11-03T10:10:04.265Z,20.7
2022-11-03T10:11:04.285Z,20.7
2022-11-03T10:12:04.281Z,20.7
2022-11-03T10:13:04.491Z,20.7
2022-11-03T10:14:04.256Z,20.7
2022-11-03T10:15:04.257Z,20.7
2022-11-03T10:16:04.249Z,20.7
2022-11-03T10:17:04.280Z,20.7
2022-11-03T10:18:04.265Z,20.7
2022-11-03T10:19:04.264Z,20.7
2022-11-03T10:20:04.353Z,20.7
2022-11-03T10:21:04.426Z,20.7
2022-11-03T10:22:04.260Z,20.7
2022-11-03T10:23:04.501Z,20.7
2022-11-03T10:24:04.261Z,20.7
2022-11-03T10:25:04.302Z,20.7
2022-11-03T10:26:04.263Z,20.7
2022-11-03T10:27:04.267Z,20.7
2022-11-03T10:28:04.275Z,20.7
2022-11-03T10:29:04.416Z,20.7
2022-11-03T10:30:04.281Z,20.7
2022-11-03T10:31:12.601Z,20.7
2022-11-03T10:32:04.257Z,20.7
2022-11-03T10:33:04.541Z,20.7
2022-11-03T10:35:51.151Z,20.4
2022-11-03T10:36:04.106Z,20.5
2022-11-03T10:37:03.872Z,20.6
2022-11-03T10:38:03.881Z,20.6
2022-11-03T10:39:03.877Z,20.7
2022-11-03T10:40:06.887Z,20.7
2022-11-03T10:41:03.865Z,20.7
2022-11-03T10:42:03.873Z,20.7
2022-11-03T10:43:04.044Z,20.7
2022-11-03T10:44:03.866Z,20.7
2022-11-03T10:45:04.400Z,20.7
2022-11-03T10:46:03.937Z,20.7
2022-11-03T10:47:03.891Z,20.7
2022-11-03T10:48:03.879Z,20.7
2022-11-03T10:49:03.893Z,20.7
2022-11-03T10:50:03.864Z,20.7
2022-11-03T10:51:03.913Z,20.7
2022-11-03T10:52:03.955Z,20.7
2022-11-03T10:53:04.098Z,20.7
2022-11-03T10:54:03.875Z,20.7
2022-11-03T10:55:03.879Z,20.7
2022-11-03T10:56:10.564Z,20.6
2022-11-03T10:57:04.317Z,20.7
2022-11-03T10:58:04.322Z,20.7
2022-11-03T10:59:04.287Z,20.7
2022-11-03T11:00:04.358Z,20.7
2022-11-03T11:01:04.319Z,20.7
2022-11-03T11:02:04.402Z,20.7
2022-11-03T11:03:04.529Z,20.7
2022-11-03T11:04:04.365Z,20.7
2022-11-03T11:05:04.328Z,20.7
2022-11-03T11:06:04.291Z,20.7
2022-11-03T11:07:04.289Z,20.7
2022-11-03T11:08:04.342Z,20.7
2022-11-03T11:09:04.287Z,20.7
2022-11-03T11:10:04.311Z,20.7
2022-11-03T11:11:04.296Z,20.7
2022-11-03T11:12:04.305Z,20.7
2022-11-03T11:13:04.647Z,20.7
2022-11-03T11:14:05.345Z,20.7
2022-11-03T11:15:04.303Z,20.7
2022-11-03T11:16:05.385Z,20.8
2022-11-03T11:17:04.281Z,20.8
2022-11-03T11:18:04.439Z,20.8
2022-11-03T11:19:04.291Z,20.8
2022-11-03T11:20:04.527Z,20.8
2022-11-03T11:21:04.289Z,20.7
2022-11-03T11:22:04.367Z,20.7
2022-11-03T11:23:04.649Z,20.7
2022-11-03T11:24:04.300Z,20.7
2022-11-03T11:25:04.286Z,20.7
2022-11-03T11:26:04.319Z,20.7
2022-11-03T11:27:04.294Z,20.7
2022-11-03T11:28:04.298Z,20.7
2022-11-03T11:29:04.299Z,20.7
2022-11-03T11:30:04.299Z,20.7
2022-11-03T11:31:04.302Z,20.7
2022-11-03T11:32:04.334Z,20.7
2022-11-03T11:33:04.614Z,20.7
2022-11-03T11:34:04.306Z,20.7
2022-11-03T11:35:04.298Z,20.7
2022-11-03T11:36:04.305Z,20.7
2022-11-03T11:37:04.300Z,20.7
2022-11-03T11:38:04.332Z,20.7
2022-11-03T11:39:04.296Z,20.7
2022-11-03T11:40:04.397Z,20.7
2022-11-03T11:41:04.311Z,20.7
2022-11-03T11:42:04.370Z,20.7
2022-11-03T11:43:04.607Z,20.7
2022-11-03T11:44:04.814Z,20.7
2022-11-03T11:45:05.240Z,20.7
2022-11-03T11:46:04.300Z,20.7
2022-11-03T11:47:04.311Z,20.7
2022-11-03T11:48:04.356Z,20.7
2022-11-03T11:49:04.352Z,20.7
2022-11-03T11:50:04.338Z,20.7
2022-11-03T11:51:04.325Z,20.7
2022-11-03T11:52:04.324Z,20.7
2022-11-03T11:53:04.618Z,20.7
2022-11-03T11:54:17.608Z,20.7
2022-11-03T11:56:13.789Z,20.7
2022-11-03T11:56:17.953Z,20.4
2022-11-03T11:57:04.305Z,20.6
2022-11-03T11:58:04.317Z,20.6
2022-11-03T11:59:04.317Z,20.7
2022-11-03T12:00:04.311Z,20.7
2022-11-03T12:01:04.318Z,20.7
2022-11-03T12:02:04.343Z,20.7
2022-11-03T12:03:04.491Z,20.7
2022-11-03T12:04:04.408Z,20.7
2022-11-03T12:05:04.342Z,20.7
2022-11-03T12:06:04.309Z,20.7
2022-11-03T12:07:04.303Z,20.7
2022-11-03T12:08:04.674Z,20.7
2022-11-03T12:09:04.359Z,20.7
2022-11-03T12:10:04.387Z,20.7
2022-11-03T12:11:04.459Z,20.7
2022-11-03T12:12:08.566Z,20.7
2022-11-03T12:13:04.312Z,20.7
2022-11-03T12:14:04.346Z,20.7
2022-11-03T12:15:04.308Z,20.7
2022-11-03T12:16:04.303Z,20.7
2022-11-03T12:17:04.430Z,20.7
2022-11-03T12:18:04.501Z,20.7
2022-11-03T12:19:04.334Z,20.7
2022-11-03T12:20:04.358Z,20.7
2022-11-03T12:21:04.315Z,20.7
2022-11-03T12:22:04.312Z,20.7
2022-11-03T12:23:04.306Z,20.7
2022-11-03T12:24:04.325Z,20.7
2022-11-03T12:25:04.867Z,20.7
2022-11-03T12:26:04.486Z,20.7
2022-11-03T12:27:04.416Z,20.7
2022-11-03T12:28:04.777Z,20.7
2022-11-03T12:29:04.312Z,20.7
2022-11-03T12:30:04.320Z,20.7
2022-11-03T12:31:04.312Z,20.7
2022-11-03T12:32:04.349Z,20.7
2022-11-03T12:33:04.491Z,20.7
2022-11-03T12:34:04.360Z,20.7
2022-11-03T12:35:04.349Z,20.7
2022-11-03T12:36:04.443Z,20.7
2022-11-03T12:37:04.320Z,20.7
2022-11-03T12:38:05.443Z,20.7
2022-11-03T12:39:04.317Z,20.7
2022-11-03T12:40:04.321Z,20.7
2022-11-03T12:41:04.512Z,20.7
2022-11-03T12:42:04.319Z,20.7
2022-11-03T12:43:04.672Z,20.7
2022-11-03T12:44:04.476Z,20.7
2022-11-03T12:45:04.328Z,20.7
2022-11-03T12:46:04.330Z,20.7
2022-11-03T12:47:04.311Z,20.7
2022-11-03T12:48:04.324Z,20.7
2022-11-03T12:49:04.387Z,20.7
2022-11-03T12:50:30.780Z,20.5
2022-11-03T12:51:11.443Z,20.6
2022-11-03T12:52:07.744Z,20.7
2022-11-03T12:53:05.198Z,20.7
2022-11-03T12:54:04.232Z,20.7
2022-11-03T12:55:04.825Z,20.7
2022-11-03T12:56:04.192Z,20.7
2022-11-03T12:57:04.167Z,20.7
2022-11-03T12:58:04.413Z,20.7
2022-11-03T12:59:04.182Z,20.7
2022-11-03T13:00:04.169Z,20.7
2022-11-03T13:01:04.249Z,20.7
2022-11-03T13:02:04.410Z,20.7
2022-11-03T13:03:04.367Z,20.7
2022-11-03T13:04:04.507Z,20.7
2022-11-03T13:05:04.227Z,20.7
2022-11-03T13:06:04.175Z,20.7
2022-11-03T13:07:05.204Z,20.7
2022-11-03T13:08:04.237Z,20.7
2022-11-03T13:09:04.205Z,20.7
2022-11-03T13:10:04.194Z,20.7
2022-11-03T13:11:04.187Z,20.7
2022-11-03T13:12:04.173Z,20.7
2022-11-03T13:13:04.313Z,20.7
2022-11-03T13:14:04.223Z,20.7
2022-11-03T13:15:04.223Z,20.7
2022-11-03T13:16:04.175Z,20.7
2022-11-03T13:17:04.195Z,20.7
2022-11-03T13:18:13.501Z,20.7
2022-11-03T13:19:04.233Z,20.7
2022-11-03T13:20:04.281Z,20.7
2022-11-03T13:21:04.310Z,20.8
2022-11-03T13:22:04.187Z,20.8
2022-11-03T13:23:07.056Z,20.8
2022-11-03T13:24:04.208Z,20.8
2022-11-03T13:25:04.242Z,20.8
2022-11-03T13:26:04.265Z,20.8